Time;durP1;ratioP1;P1;durP2;ratioP2;P2;SDS_P1;SDS_P2;PMS_P1;PMS_P2;Temp;Humidity;BMP_temperature;BMP_pressure;BME280_temperature;BME280_humidity;BME280_pressure;Samples;Min_cycle;Max_cycle;Signal;HPM_P1;HPM_P2
2023/08/05 00:02:12;;;;;;;6.30;3.63;;;;;;;12.05;100.00;101089.78;7394175;19;20424;-46
2023/08/05 00:04:41;;;;;;;13.60;4.20;;;;;;;12.07;100.00;101083.88;7368165;19;20580;-45
2023/08/05 00:07:11;;;;;;;17.03;3.97;;;;;;;12.07;100.00;101082.97;7397575;19;20446;-48
2023/08/05 00:09:41;;;;;;;7.90;3.87;;;;;;;12.09;100.00;101081.31;7369245;19;20423;-46
2023/08/05 00:12:11;;;;;;;10.90;4.50;;;;;;;12.14;100.00;101075.53;7394391;19;20479;-48
2023/08/05 00:14:43;;;;;;;7.93;3.53;;;;;;;12.02;100.00;101075.00;7367884;19;20534;-50
2023/08/05 00:17:12;;;;;;;8.80;4.27;;;;;;;12.01;100.00;101084.44;7397419;19;20416;-44
2023/08/05 00:19:42;;;;;;;14.27;5.10;;;;;;;11.98;100.00;101092.09;7371060;19;20550;-47
2023/08/05 00:22:12;;;;;;;9.13;4.40;;;;;;;12.13;100.00;101093.56;7393249;19;20415;-46
2023/08/05 00:24:42;;;;;;;8.00;4.27;;;;;;;12.34;100.00;101103.00;7369459;19;20527;-47
2023/08/05 00:27:12;;;;;;;10.03;4.67;;;;;;;12.31;100.00;101106.34;7394860;19;20433;-44
2023/08/05 00:29:45;;;;;;;10.70;4.80;;;;;;;12.19;100.00;101111.94;7370788;19;20422;-47
2023/08/05 00:32:15;;;;;;;11.83;4.37;;;;;;;12.12;100.00;101120.25;7394774;19;20412;-48
2023/08/05 00:34:45;;;;;;;10.53;4.63;;;;;;;12.18;100.00;101117.94;7368475;19;20895;-49
2023/08/05 00:37:14;;;;;;;9.77;4.00;;;;;;;12.14;100.00;101131.53;7394450;19;20411;-44
2023/08/05 00:39:44;;;;;;;14.20;5.50;;;;;;;12.06;100.00;101128.66;7369051;19;20430;-43
2023/08/05 00:42:18;;;;;;;11.60;4.60;;;;;;;12.01;100.00;101131.00;7394159;19;20415;-45
2023/08/05 00:44:50;;;;;;;14.63;4.50;;;;;;;11.88;100.00;101133.88;7367714;19;20581;-45
2023/08/05 00:47:20;;;;;;;8.73;4.20;;;;;;;12.12;100.00;101138.38;7394788;19;21211;-45
2023/08/05 00:49:52;;;;;;;8.00;4.87;;;;;;;12.29;100.00;101128.69;7370112;19;20438;-47
2023/08/05 00:52:23;;;;;;;18.20;5.00;;;;;;;12.33;100.00;101129.72;7394570;19;20411;-47
2023/08/05 00:54:53;;;;;;;12.10;4.50;;;;;;;12.07;100.00;101137.28;7368621;19;20527;-46
2023/08/05 00:57:23;;;;;;;9.13;4.30;;;;;;;11.92;100.00;101140.06;7392160;19;20408;-48
2023/08/05 00:59:55;;;;;;;14.43;3.97;;;;;;;11.96;100.00;101142.88;7369080;19;20442;-45
2023/08/05 01:02:25;;;;;;;9.70;3.87;;;;;;;11.95;100.00;101142.81;7394137;19;20432;-49
2023/08/05 01:04:54;;;;;;;12.43;4.13;;;;;;;11.93;100.00;101147.91;7366570;19;20462;-46
2023/08/05 01:07:24;;;;;;;9.03;4.10;;;;;;;11.92;100.00;101146.13;7390805;19;20436;-46
2023/08/05 01:09:54;;;;;;;10.20;3.83;;;;;;;11.92;100.00;101150.41;7369250;19;20439;-48
2023/08/05 01:12:24;;;;;;;15.93;4.80;;;;;;;11.96;100.00;101142.88;7393482;19;21001;-48
2023/08/05 01:14:56;;;;;;;14.07;4.00;;;;;;;11.99;100.00;101140.41;7367689;19;21007;-50
2023/08/05 01:17:26;;;;;;;8.10;3.57;;;;;;;12.00;100.00;101149.91;7393539;19;20411;-48
2023/08/05 01:19:55;;;;;;;9.07;3.80;;;;;;;12.04;100.00;101150.09;7369604;19;20427;-49
2023/08/05 01:22:34;;;;;;;12.27;4.30;;;;;;;12.04;100.00;101150.09;7393012;19;20408;-49
2023/08/05 01:25:07;;;;;;;8.87;4.70;;;;;;;12.06;100.00;101145.88;7367536;19;20459;-46
2023/08/05 01:27:40;;;;;;;14.10;4.17;;;;;;;12.07;100.00;101148.53;7392835;19;20404;-47
2023/08/05 01:30:11;;;;;;;11.40;4.20;;;;;;;12.07;100.00;101153.69;7371773;19;20443;-49
2023/08/05 01:32:41;;;;;;;13.20;5.77;;;;;;;12.06;100.00;101153.63;7391164;19;20999;-49
2023/08/05 01:35:12;;;;;;;8.50;4.37;;;;;;;12.07;100.00;101155.38;7368758;19;20450;-49
2023/08/05 01:37:42;;;;;;;12.37;5.50;;;;;;;12.08;100.00;101146.81;7392448;19;20418;-47
2023/08/05 01:40:13;;;;;;;9.80;4.30;;;;;;;12.08;100.00;101146.81;7371180;19;20439;-47
2023/08/05 01:42:45;;;;;;;9.37;4.17;;;;;;;12.14;100.00;101147.06;7389187;19;21018;-46
2023/08/05 01:45:15;;;;;;;12.80;4.60;;;;;;;12.17;100.00;101147.19;7371649;19;20423;-52
2023/08/05 01:47:44;;;;;;;9.40;4.17;;;;;;;12.20;100.00;101156.78;7369855;19;20424;-48
2023/08/05 01:50:14;;;;;;;11.60;4.77;;;;;;;12.20;100.00;101155.06;7392690;19;21054;-48
2023/08/05 01:52:43;;;;;;;18.83;5.43;;;;;;;12.22;100.00;101156.03;7378997;19;20426;-48
2023/08/05 01:55:13;;;;;;;8.03;4.07;;;;;;;12.27;100.00;101158.81;7392574;19;20990;-46
2023/08/05 01:57:45;;;;;;;11.43;4.57;;;;;;;12.28;100.00;101156.28;7387802;19;20782;-43
2023/08/05 02:00:15;;;;;;;8.93;4.00;;;;;;;12.31;100.00;101150.34;7394672;19;20413;-46
2023/08/05 02:02:45;;;;;;;12.13;4.90;;;;;;;12.36;100.00;101159.19;7368335;19;20409;-51
2023/08/05 02:05:14;;;;;;;8.10;3.70;;;;;;;12.44;100.00;101162.09;7390325;19;20446;-46
2023/08/05 02:07:44;;;;;;;17.93;5.60;;;;;;;12.69;100.00;101156.19;7371783;19;20414;-48
2023/08/05 02:10:14;;;;;;;13.30;4.03;;;;;;;12.61;100.00;101162.75;7403430;19;20434;-44
2023/08/05 02:12:46;;;;;;;9.40;4.40;;;;;;;12.49;100.00;101164.84;7396129;19;20410;-44
2023/08/05 02:15:15;;;;;;;11.43;4.77;;;;;;;12.45;100.00;101169.03;7408596;19;20482;-47
2023/08/05 02:17:45;;;;;;;8.50;4.00;;;;;;;12.46;100.00;101165.59;7381327;19;20641;-51
2023/08/05 02:20:15;;;;;;;18.17;5.50;;;;;;;12.43;100.00;101171.53;7404691;19;20475;-49
2023/08/05 02:22:44;;;;;;;7.73;4.23;;;;;;;12.42;100.00;101168.91;7382010;19;20431;-45
2023/08/05 02:25:14;;;;;;;11.57;4.53;;;;;;;12.85;100.00;101149.00;7405571;19;20446;-46
2023/08/05 02:27:46;;;;;;;6.73;3.80;;;;;;;12.89;100.00;101152.59;7391417;19;20411;-44
2023/08/05 02:30:19;;;;;;;9.00;4.60;;;;;;;12.88;100.00;101158.59;7406760;19;20426;-47
2023/08/05 02:32:48;;;;;;;9.10;4.10;;;;;;;12.71;100.00;101169.19;7380316;19;20418;-46
2023/08/05 02:35:18;;;;;;;9.83;4.17;;;;;;;12.59;100.00;101187.69;7406057;19;20973;-53
2023/08/05 02:37:48;;;;;;;18.23;8.53;;;;;;;12.56;100.00;101187.56;7380322;19;20418;-48
2023/08/05 02:40:17;;;;;;;11.53;5.60;;;;;;;12.55;100.00;101194.47;7403828;19;20487;-49
2023/08/05 02:42:50;;;;;;;13.40;7.20;;;;;;;12.58;100.00;101187.63;7379098;19;20428;-47
2023/08/05 02:45:19;;;;;;;12.13;4.47;;;;;;;12.72;100.00;101188.19;7403963;19;20487;-48
2023/08/05 02:47:49;;;;;;;6.80;4.27;;;;;;;12.62;100.00;101186.94;7380125;19;20396;-48
2023/08/05 02:50:18;;;;;;;9.63;4.27;;;;;;;12.61;100.00;101195.53;7404107;19;20419;-45
2023/08/05 02:52:48;;;;;;;7.10;4.20;;;;;;;12.57;100.00;101194.53;7379200;19;20778;-49
2023/08/05 02:55:18;;;;;;;8.13;4.13;;;;;;;12.55;100.00;101191.88;7403707;19;20418;-46
2023/08/05 02:57:50;;;;;;;14.13;4.80;;;;;;;12.51;100.00;101183.94;7379551;19;20941;-45
2023/08/05 03:00:20;;;;;;;9.27;4.63;;;;;;;12.49;100.00;101186.44;7403327;19;20482;-48
2023/08/05 03:02:50;;;;;;;12.40;4.90;;;;;;;12.47;100.00;101182.94;7378738;19;20427;-45
2023/08/05 03:05:20;;;;;;;13.97;5.17;;;;;;;12.49;100.00;101191.63;7402979;19;20832;-50
2023/08/05 03:07:49;;;;;;;8.23;4.70;;;;;;;12.54;100.00;101179.75;7379414;19;20772;-49
2023/08/05 03:10:19;;;;;;;17.23;6.77;;;;;;;12.68;100.00;101177.69;7403452;19;20407;-48
2023/08/05 03:12:51;;;;;;;139.90;61.07;;;;;;;12.75;100.00;101171.06;7378454;19;20427;-47
2023/08/05 03:15:21;;;;;;;67.60;30.70;;;;;;;12.80;100.00;101174.72;7402746;19;20407;-44
2023/08/05 03:17:50;;;;;;;100.10;41.90;;;;;;;12.90;100.00;101155.25;7378871;19;20825;-47
2023/08/05 03:20:27;;;;;;;46.93;16.93;;;;;;;12.78;100.00;101155.66;7400662;19;20414;-44
2023/08/05 03:22:57;;;;;;;21.77;11.57;;;;;;;12.71;100.00;101156.22;7371457;19;20411;-47
2023/08/05 03:25:28;;;;;;;37.57;16.47;;;;;;;12.68;100.00;101161.31;7395330;19;20418;-48
2023/08/05 03:28:00;;;;;;;9.27;4.67;;;;;;;12.59;100.00;101160.91;7372096;19;20759;-46
2023/08/05 03:30:27;;;;;;;19.40;6.93;;;;;;;12.50;100.00;101161.44;7395907;19;20753;-51
2023/08/05 03:32:57;;;;;;;7.70;3.70;;;;;;;12.43;100.00;101173.25;7370537;19;20412;-44
2023/08/05 03:35:27;;;;;;;11.07;3.77;;;;;;;12.38;100.00;101170.50;7394405;19;20474;-47
2023/08/05 03:37:56;;;;;;;9.97;4.40;;;;;;;12.42;100.00;101159.44;7372709;19;20400;-45
2023/08/05 03:40:26;;;;;;;13.77;7.33;;;;;;;12.46;100.00;101170.78;7395179;19;21069;-47
2023/08/05 03:42:55;;;;;;;7.97;3.93;;;;;;;12.44;100.00;101167.25;7365685;19;20411;-46
2023/08/05 03:45:27;;;;;;;14.07;5.63;;;;;;;12.48;100.00;101169.16;7395234;19;20410;-49
2023/08/05 03:47:57;;;;;;;7.20;3.57;;;;;;;12.46;100.00;101164.75;7370710;19;20847;-46
2023/08/05 03:50:28;;;;;;;17.40;4.10;;;;;;;12.40;100.00;101161.06;7395188;19;20750;-49
2023/08/05 03:52:58;;;;;;;9.70;3.40;;;;;;;12.38;100.00;101152.38;7369885;19;20757;-46
2023/08/05 03:55:28;;;;;;;8.50;3.60;;;;;;;12.36;100.00;101150.53;7395361;19;20774;-46
2023/08/05 03:57:57;;;;;;;9.40;3.80;;;;;;;12.37;100.00;101136.78;7371081;19;20496;-46
2023/08/05 04:00:30;;;;;;;8.40;4.27;;;;;;;12.38;100.00;101125.59;7394913;19;20483;-44
2023/08/05 04:02:59;;;;;;;11.20;3.33;;;;;;;12.41;100.00;101120.56;7371688;19;20400;-46
2023/08/05 04:05:29;;;;;;;10.20;4.10;;;;;;;12.46;100.00;101123.34;7394451;19;20427;-47
2023/08/05 04:07:59;;;;;;;14.40;4.37;;;;;;;12.48;100.00;101112.22;7371905;19;20403;-49
2023/08/05 04:10:29;;;;;;;9.67;4.20;;;;;;;12.49;100.00;101113.09;7393472;19;20956;-44
2023/08/05 04:13:01;;;;;;;12.03;4.40;;;;;;;12.50;100.00;101109.69;7369753;19;20417;-48
2023/08/05 04:15:35;;;;;;;10.90;5.07;;;;;;;12.56;100.00;101103.03;7394772;19;20998;-47
2023/08/05 04:18:04;;;;;;;10.47;5.33;;;;;;;12.59;100.00;101103.97;7370321;19;20383;-50
2023/08/05 04:20:36;;;;;;;13.90;4.23;;;;;;;12.66;100.00;101098.22;7394973;19;20414;-45
2023/08/05 04:23:08;;;;;;;9.30;3.57;;;;;;;12.73;100.00;101087.28;7370002;19;20420;-49
2023/08/05 04:25:38;;;;;;;11.13;4.70;;;;;;;12.97;100.00;101081.25;7393571;19;20443;-45
2023/08/05 04:28:11;;;;;;;17.23;4.77;;;;;;;12.87;100.00;101084.34;7371064;19;20401;-45
2023/08/05 04:30:43;;;;;;;9.83;4.70;;;;;;;12.80;100.00;101086.69;7392861;19;20414;-46
2023/08/05 04:33:13;;;;;;;8.70;4.07;;;;;;;12.80;100.00;101088.41;7366293;19;20392;-44
2023/08/05 04:35:47;;;;;;;14.30;4.50;;;;;;;12.76;100.00;101097.75;7392733;19;20424;-51
2023/08/05 04:38:17;;;;;;;13.63;4.30;;;;;;;12.77;100.00;101103.81;7370251;19;20398;-47
2023/08/05 04:40:47;;;;;;;17.93;4.00;;;;;;;12.83;100.00;101099.75;7392377;19;20415;-46
2023/08/05 04:43:17;;;;;;;9.60;3.80;;;;;;;12.86;100.00;101087.75;7369179;19;20447;-46
2023/08/05 04:45:50;;;;;;;15.20;4.70;;;;;;;12.82;100.00;101089.34;7393913;19;20411;-49
2023/08/05 04:48:20;;;;;;;12.40;5.13;;;;;;;12.71;100.00;101093.25;7371895;19;20402;-48
2023/08/05 04:50:50;;;;;;;9.87;3.83;;;;;;;12.68;100.00;101094.00;7392253;19;20436;-46
2023/08/05 04:53:20;;;;;;;14.80;6.97;;;;;;;12.70;100.00;101102.69;7368853;19;20498;-48
2023/08/05 04:55:49;;;;;;;11.30;4.70;;;;;;;12.71;100.00;101108.78;7392769;19;20407;-45
2023/08/05 04:58:19;;;;;;;9.20;4.10;;;;;;;12.73;100.00;101101.94;7371549;19;20785;-49
2023/08/05 05:00:51;;;;;;;46.97;27.47;;;;;;;12.87;100.00;101098.16;7392038;19;21016;-48
2023/08/05 05:03:21;;;;;;;16.37;9.33;;;;;;;12.85;100.00;101097.22;7367583;19;20502;-48
2023/08/05 05:08:19;;;;;;;22.07;12.77;;;;;;;13.02;100.00;101095.25;7367176;19;20423;-51
2023/08/05 05:10:48;;;;;;;16.07;9.20;;;;;;;13.10;100.00;101099.03;7390517;19;20407;-47
2023/08/05 05:13:18;;;;;;;32.80;17.47;;;;;;;13.28;100.00;101097.91;7368702;19;20383;-51
2023/08/05 05:15:48;;;;;;;6.23;4.20;;;;;;;13.23;100.00;101104.66;7391992;19;20496;-51
2023/08/05 05:18:20;;;;;;;10.20;3.43;;;;;;;13.20;100.00;101114.91;7367817;19;20415;-46
2023/08/05 05:20:51;;;;;;;13.27;4.00;;;;;;;13.23;100.00;101125.41;7392014;19;20490;-44
2023/08/05 05:23:21;;;;;;;7.40;3.50;;;;;;;13.28;100.00;101128.16;7368243;19;20482;-45
2023/08/05 05:25:50;;;;;;;6.87;3.37;;;;;;;13.33;100.00;101132.66;7393092;19;20414;-45
2023/08/05 05:28:20;;;;;;;11.93;3.67;;;;;;;13.42;100.00;101146.75;7368877;19;20403;-46
2023/08/05 05:30:50;;;;;;;7.40;3.90;;;;;;;13.50;100.00;101160.94;7391439;19;20404;-48
2023/08/05 05:33:22;;;;;;;7.87;4.40;;;;;;;13.62;100.00;101166.56;7368008;19;20422;-50
2023/08/05 05:35:52;;;;;;;5.23;3.30;;;;;;;13.68;100.00;101172.81;7391340;19;20403;-47
2023/08/05 05:38:22;;;;;;;10.43;3.40;;;;;;;13.72;100.00;101187.63;7368024;19;20395;-49
2023/08/05 05:40:51;;;;;;;8.40;3.60;;;;;;;13.81;100.00;101187.97;7391097;19;20412;-48
2023/08/05 05:43:21;;;;;;;13.50;3.77;;;;;;;13.91;100.00;101200.41;7365844;19;20479;-47
2023/08/05 05:45:54;;;;;;;8.50;4.07;;;;;;;14.01;100.00;101226.69;7391679;19;20415;-49
2023/08/05 05:48:27;;;;;;;4.97;2.80;;;;;;;14.12;100.00;101235.75;7369958;19;20415;-48
2023/08/05 05:50:56;;;;;;;10.67;3.47;;;;;;;14.23;100.00;101253.38;7391519;19;20407;-50
2023/08/05 05:53:26;;;;;;;11.10;4.90;;;;;;;14.29;100.00;101256.19;7368436;19;20387;-45
2023/08/05 05:55:56;;;;;;;8.90;3.30;;;;;;;14.32;100.00;101264.09;7391280;19;20474;-48
2023/08/05 05:58:25;;;;;;;7.87;4.20;;;;;;;14.38;100.00;101261.69;7368260;19;20416;-47
2023/08/05 06:00:57;;;;;;;14.17;4.33;;;;;;;14.39;100.00;101278.13;7390261;19;20490;-49
2023/08/05 06:03:31;;;;;;;7.40;2.90;;;;;;;14.36;100.00;101280.66;7368107;19;20387;-46
2023/08/05 06:06:01;;;;;;;11.83;3.23;;;;;;;14.37;100.00;101282.41;7391740;19;20404;-45
2023/08/05 06:08:30;;;;;;;15.63;3.80;;;;;;;14.38;100.00;101297.16;7367958;19;20416;-50
2023/08/05 06:11:03;;;;;;;8.23;2.90;;;;;;;14.41;100.00;101300.72;7390263;19;20479;-48
2023/08/05 06:13:33;;;;;;;6.10;3.07;;;;;;;14.47;100.00;101306.97;7367849;19;20976;-50
2023/08/05 06:16:03;;;;;;;8.30;2.83;;;;;;;14.45;100.00;101307.81;7390938;19;20436;-47
2023/08/05 06:18:35;;;;;;;9.30;3.13;;;;;;;14.51;100.00;101319.22;7366767;19;20439;-47
2023/08/05 06:21:05;;;;;;;9.03;3.73;;;;;;;14.55;100.00;101318.50;7391843;19;20420;-45
2023/08/05 06:23:34;;;;;;;7.90;3.50;;;;;;;14.54;100.00;101317.63;7367504;19;20986;-43
2023/08/05 06:26:04;;;;;;;11.50;4.27;;;;;;;14.54;100.00;101321.91;7390720;19;20407;-48
2023/08/05 06:28:33;;;;;;;12.03;4.60;;;;;;;14.53;100.00;101320.16;7367077;19;20947;-48
2023/08/05 06:31:03;;;;;;;12.23;3.93;;;;;;;14.56;100.00;101315.09;7389440;19;20407;-44
2023/08/05 06:33:35;;;;;;;9.40;4.13;;;;;;;14.55;100.00;101316.78;7366293;19;20456;-50
2023/08/05 06:36:05;;;;;;;8.20;4.60;;;;;;;14.58;100.00;101316.88;7390253;19;20408;-49
2023/08/05 06:38:35;;;;;;;12.30;4.20;;;;;;;14.58;100.00;101319.47;7367229;19;20428;-52
2023/08/05 06:41:05;;;;;;;6.70;4.10;;;;;;;14.50;100.00;101310.56;7389351;19;20427;-48
2023/08/05 06:43:35;;;;;;;14.43;5.83;;;;;;;14.43;100.00;101314.66;7366663;19;20415;-44
2023/08/05 06:46:04;;;;;;;12.53;5.17;;;;;;;14.38;100.00;101311.03;7389736;19;20474;-47
2023/08/05 06:48:36;;;;;;;9.77;4.40;;;;;;;14.49;100.00;101305.28;7366625;19;20427;-48
2023/08/05 06:51:06;;;;;;;16.00;5.23;;;;;;;14.66;100.00;101304.16;7387865;19;21041;-49
2023/08/05 06:53:39;;;;;;;7.03;3.90;;;;;;;14.79;100.00;101313.28;7365715;19;20971;-43
2023/08/05 06:56:08;;;;;;;12.43;4.20;;;;;;;14.81;100.00;101306.44;7390466;19;20426;-47
2023/08/05 06:58:38;;;;;;;20.33;9.67;;;;;;;14.92;100.00;101314.56;7371296;19;20552;-53
2023/08/05 07:01:07;;;;;;;9.73;4.70;;;;;;;14.92;100.00;101330.16;7395819;19;20479;-48
2023/08/05 07:03:41;;;;;;;8.90;4.40;;;;;;;15.01;100.00;101331.31;7373262;19;20415;-47
2023/08/05 07:06:11;;;;;;;14.03;6.10;;;;;;;15.15;100.00;101340.41;7395640;19;20431;-50
2023/08/05 07:08:41;;;;;;;10.70;4.20;;;;;;;15.24;100.00;101350.22;7371400;19;20419;-52
2023/08/05 07:11:10;;;;;;;9.30;4.27;;;;;;;15.24;100.00;101353.69;7394541;19;20415;-45
2023/08/05 07:13:40;;;;;;;10.93;4.30;;;;;;;15.34;100.00;101367.00;7371360;19;20426;-49
2023/08/05 07:16:10;;;;;;;16.60;6.30;;;;;;;15.24;100.00;101390.09;7398415;19;20453;-44
2023/08/05 07:18:42;;;;;;;11.20;3.50;;;;;;;15.38;100.00;101416.53;7370906;19;20951;-47
2023/08/05 07:21:12;;;;;;;11.30;3.73;;;;;;;15.44;100.00;101435.78;7395236;19;20407;-50
2023/08/05 07:23:41;;;;;;;9.30;3.80;;;;;;;15.45;100.00;101446.25;7372405;19;20514;-45
2023/08/05 07:26:11;;;;;;;10.87;3.67;;;;;;;15.43;100.00;101455.69;7395733;19;21195;-47
2023/08/05 07:28:40;;;;;;;12.90;3.87;;;;;;;15.53;100.00;101459.47;7370017;19;20434;-46
2023/08/05 07:31:10;;;;;;;13.73;6.10;;;;;;;15.55;100.00;101467.31;7394831;19;20412;-45
2023/08/05 07:33:46;;;;;;;13.07;5.53;;;;;;;15.67;100.00;101470.31;7370539;19;20415;-44
2023/08/05 07:36:17;;;;;;;9.90;3.90;;;;;;;15.75;100.00;101474.03;7395312;19;20447;-45
2023/08/05 07:38:47;;;;;;;9.50;2.63;;;;;;;15.90;100.00;101476.25;7370455;19;20434;-50
2023/08/05 07:41:18;;;;;;;9.03;4.30;;;;;;;16.02;100.00;101478.41;7394452;19;20920;-47
2023/08/05 07:43:48;;;;;;;20.60;8.20;;;;;;;15.97;100.00;101490.38;7370088;19;20439;-43
2023/08/05 07:46:19;;;;;;;16.17;6.03;;;;;;;15.96;100.00;101504.22;7394041;19;20430;-47
2023/08/05 07:48:52;;;;;;;16.77;6.67;;;;;;;15.97;100.00;101503.41;7370423;19;20430;-46
2023/08/05 07:51:23;;;;;;;8.20;2.90;;;;;;;16.21;100.00;101505.00;7394752;19;20935;-49
2023/08/05 07:53:53;;;;;;;7.70;2.90;;;;;;;16.41;100.00;101495.16;7370833;19;20419;-52
2023/08/05 07:56:23;;;;;;;7.20;3.70;;;;;;;16.39;100.00;101502.03;7395058;19;20863;-46
2023/08/05 07:58:53;;;;;;;10.00;3.20;;;;;;;16.38;100.00;101518.50;7370249;19;20407;-45
2023/08/05 08:01:24;;;;;;;7.60;3.67;;;;;;;16.35;100.00;101525.34;7394223;19;20971;-49
2023/08/05 08:04:01;;;;;;;7.13;2.93;;;;;;;16.31;100.00;101529.59;7370148;19;20426;-50
2023/08/05 08:06:32;;;;;;;7.53;3.10;;;;;;;16.36;100.00;101521.91;7392992;19;20537;-47
2023/08/05 08:09:01;;;;;;;6.43;2.87;;;;;;;16.28;100.00;101525.16;7370881;19;20444;-46
2023/08/05 08:11:31;;;;;;;7.23;3.90;;;;;;;16.48;100.00;101535.28;7394411;19;20415;-49
2023/08/05 08:14:00;;;;;;;9.33;2.33;;;;;;;16.67;100.00;101533.22;7370114;19;20427;-48
2023/08/05 08:16:30;;;;;;;5.23;2.13;;;;;;;17.00;100.00;101533.31;7394832;19;20801;-51
2023/08/05 08:19:04;;;;;;;6.40;2.80;;;;;;;17.04;100.00;101541.22;7369636;19;20423;-50
2023/08/05 08:21:34;;;;;;;10.50;3.70;;;;;;;16.86;100.00;101550.25;7394544;19;20403;-51
2023/08/05 08:24:03;;;;;;;10.60;2.13;;;;;;;16.82;100.00;101559.72;7369068;19;20423;-49
2023/08/05 08:26:33;;;;;;;8.00;2.10;;;;;;;17.00;100.00;101561.06;7394837;19;20515;-52
2023/08/05 08:29:02;;;;;;;6.13;2.50;;;;;;;17.06;100.00;101553.47;7368843;19;20502;-52
2023/08/05 08:31:33;;;;;;;3.93;2.10;;;;;;;17.24;100.00;101562.63;7395632;19;20953;-49
2023/08/05 08:34:06;;;;;;;8.13;2.50;;;;;;;17.22;100.00;101564.31;7369799;19;20436;-50
2023/08/05 08:36:35;;;;;;;3.90;2.10;;;;;;;17.08;100.00;101577.84;7394966;19;20440;-48
2023/08/05 08:39:07;;;;;;;5.10;2.53;;;;;;;17.03;100.00;101568.13;7369164;19;20511;-47
2023/08/05 08:41:41;;;;;;;20.23;9.83;;;;;;;16.94;100.00;101560.91;7394160;19;20479;-53
2023/08/05 08:44:11;;;;;;;22.97;10.93;;;;;;;16.87;100.00;101563.34;7368475;19;20518;-50
2023/08/05 08:46:41;;;;;;;5.97;2.87;;;;;;;16.87;100.00;101552.91;7392896;19;20995;-50
2023/08/05 08:49:14;;;;;;;15.00;7.20;;;;;;;16.80;100.00;101550.09;7369704;19;20466;-47
2023/08/05 08:51:45;;;;;;;22.40;10.27;;;;;;;16.79;100.00;101550.94;7392412;19;20417;-46
2023/08/05 08:54:16;;;;;;;14.50;7.07;;;;;;;16.77;100.00;101550.88;7369078;19;20427;-52
2023/08/05 08:56:46;;;;;;;11.20;5.17;;;;;;;16.82;100.00;101549.28;7392369;19;20433;-49
2023/08/05 08:59:15;;;;;;;24.47;10.97;;;;;;;16.94;100.00;101532.25;7369023;19;20430;-44
2023/08/05 09:01:45;;;;;;;59.37;26.53;;;;;;;16.86;100.00;101560.69;7390880;19;20491;-50
2023/08/05 09:04:18;;;;;;;10.27;5.17;;;;;;;16.82;100.00;101564.91;7368699;19;20812;-47
2023/08/05 09:06:49;;;;;;;8.87;2.70;;;;;;;16.82;100.00;101554.50;7392132;19;21097;-50
2023/08/05 09:09:18;;;;;;;5.57;2.90;;;;;;;16.77;100.00;101556.09;7368878;19;20420;-48
2023/08/05 09:11:48;;;;;;;7.03;3.00;;;;;;;16.70;100.00;101555.03;7392193;19;20479;-50
2023/08/05 09:14:18;;;;;;;13.00;3.17;;;;;;;16.63;100.00;101552.19;7367689;19;20971;-46
2023/08/05 09:17:06;;;;;;;8.57;3.90;;;;;;;16.57;100.00;101548.56;7392524;19;20439;-50
2023/08/05 09:19:38;;;;;;;11.07;5.87;;;;;;;16.64;100.00;101538.34;7366743;19;20507;-51
2023/08/05 09:22:08;;;;;;;6.80;3.37;;;;;;;16.75;100.00;101536.94;7392554;19;20403;-50
2023/08/05 09:24:38;;;;;;;7.50;3.60;;;;;;;16.78;100.00;101547.47;7369053;19;20419;-46
2023/08/05 09:27:08;;;;;;;8.37;2.93;;;;;;;16.87;100.00;101562.47;7393763;19;20528;-49
2023/08/05 09:29:38;;;;;;;17.80;8.43;;;;;;;16.91;100.00;101553.88;7368202;19;20419;-47
2023/08/05 09:32:09;;;;;;;4.33;2.63;;;;;;;17.05;100.00;101556.91;7392230;19;20419;-48
2023/08/05 09:34:43;;;;;;;62.53;26.10;;;;;;;17.11;100.00;101544.06;7367151;19;20465;-52
2023/08/05 09:37:13;;;;;;;5.50;2.27;;;;;;;17.38;100.00;101537.78;7392568;19;20530;-50
2023/08/05 09:39:45;;;;;;;53.10;25.43;;;;;;;17.68;100.00;101533.31;7367615;19;20422;-50
2023/08/05 09:42:20;;;;;;;7.53;3.23;;;;;;;17.86;100.00;101547.66;7391973;19;20408;-49
2023/08/05 09:44:52;;;;;;;50.03;21.83;;;;;;;17.87;100.00;101546.81;7367126;19;20426;-52
2023/08/05 09:47:23;;;;;;;37.90;16.50;;;;;;;17.67;100.00;101558.53;7392629;19;20458;-49
2023/08/05 09:49:58;;;;;;;7.07;3.27;;;;;;;17.74;100.00;101554.34;7368433;19;20430;-50
2023/08/05 09:52:28;;;;;;;5.43;2.97;;;;;;;18.21;100.00;101551.13;7393289;19;20406;-48
2023/08/05 09:55:01;;;;;;;4.87;2.17;;;;;;;18.66;100.00;101543.38;7367029;19;20516;-48
2023/08/05 09:57:33;;;;;;;5.60;2.50;;;;;;;18.76;100.00;101555.78;7392644;19;20460;-50
2023/08/05 10:00:07;;;;;;;7.87;2.80;;;;;;;18.78;100.00;101541.88;7368236;19;20435;-51
2023/08/05 10:02:38;;;;;;;7.10;2.83;;;;;;;18.86;100.00;101551.63;7389548;19;20415;-48
2023/08/05 10:05:12;;;;;;;5.30;2.63;;;;;;;19.02;100.00;101537.16;7367053;19;20465;-47
2023/08/05 10:07:43;;;;;;;7.53;3.80;;;;;;;19.20;100.00;101516.53;7390324;19;20441;-52
2023/08/05 10:10:16;;;;;;;7.90;2.47;;;;;;;19.00;100.00;101485.66;7369587;19;20431;-48
2023/08/05 10:12:49;;;;;;;16.67;9.87;;;;;;;19.08;100.00;101484.06;7365776;19;20502;-49
2023/08/05 10:15:23;;;;;;;12.60;6.40;;;;;;;19.06;100.00;101471.84;7388790;19;20426;-46
2023/08/05 10:17:53;;;;;;;9.73;5.50;;;;;;;18.73;100.00;101464.22;7366513;19;20442;-52
2023/08/05 10:20:25;;;;;;;8.93;4.00;;;;;;;18.09;100.00;101420.28;7390319;19;20775;-48
2023/08/05 10:23:05;;;;;;;15.00;7.47;;;;;;;18.54;100.00;101449.06;7365771;19;20412;-47
2023/08/05 10:25:43;;;;;;;13.93;5.37;;;;;;;19.22;100.00;101468.63;7390564;19;20474;-48
2023/08/05 10:28:31;;;;;;;15.43;8.23;;;;;;;18.88;100.00;101407.88;7366324;19;20395;-45
2023/08/05 10:31:05;;;;;;;5.80;2.33;;;;;;;18.84;100.00;101353.78;7394574;19;20411;-52
2023/08/05 10:34:10;;;;;;;7.70;4.33;;;;;;;19.40;100.00;101342.50;7373608;19;20411;-46
2023/08/05 10:36:48;;;;;;;7.77;3.80;;;;;;;19.53;100.00;101317.38;7395902;19;20447;-48
2023/08/05 10:39:45;;;;;;;15.13;7.10;;;;;;;19.43;100.00;101282.34;7373123;19;20414;-51
2023/08/05 10:42:34;;;;;;;31.27;14.63;;;;;;;19.06;100.00;101242.59;7396333;19;20411;-48
2023/08/05 10:45:07;;;;;;;16.77;7.90;;;;;;;18.57;100.00;101245.31;7373466;19;20427;-50
2023/08/05 10:47:36;;;;;;;6.97;3.37;;;;;;;18.32;100.00;101281.47;7396917;19;20454;-46
2023/08/05 10:50:07;;;;;;;4.33;2.13;;;;;;;18.15;100.00;101271.59;7373202;19;21283;-50
2023/08/05 10:52:41;;;;;;;7.03;4.30;;;;;;;18.15;100.00;101295.09;7397536;19;20407;-51
2023/08/05 10:55:14;;;;;;;7.53;2.70;;;;;;;18.10;100.00;101286.28;7376402;19;20510;-50
2023/08/05 10:57:50;;;;;;;6.40;2.50;;;;;;;18.17;100.00;101277.75;7388383;19;20453;-45
2023/08/05 11:00:24;;;;;;;7.87;3.40;;;;;;;18.43;100.00;101334.81;7397070;19;20950;-49
2023/08/05 11:03:23;;;;;;;13.60;5.70;;;;;;;18.33;100.00;101315.47;7371811;19;20422;-46
2023/08/05 11:05:54;;;;;;;4.70;2.87;;;;;;;18.25;100.00;101285.69;7393646;19;20407;-46
2023/08/05 11:08:27;;;;;;;6.00;3.10;;;;;;;18.29;100.00;101292.75;7372142;19;20403;-49
2023/08/05 11:10:57;;;;;;;10.07;5.70;;;;;;;18.54;100.00;101365.44;7394679;19;20430;-48
2023/08/05 11:13:27;;;;;;;6.30;3.40;;;;;;;18.54;100.00;101341.94;7374187;19;20405;-48
2023/08/05 11:16:08;;;;;;;10.40;6.33;;;;;;;18.78;100.00;101343.22;7394130;19;20943;-47
2023/08/05 11:18:38;;;;;;;11.03;6.07;;;;;;;19.00;100.00;101354.91;7372921;19;20415;-51
2023/08/05 11:21:10;;;;;;;8.83;3.40;;;;;;;18.95;100.00;101284.25;7394917;19;20491;-50
2023/08/05 11:23:44;;;;;;;5.37;2.73;;;;;;;19.09;100.00;101228.72;7371270;19;20468;-51
2023/08/05 11:26:13;;;;;;;8.30;4.33;;;;;;;19.09;100.00;101198.22;7395469;19;20438;-44
2023/08/05 11:28:46;;;;;;;14.20;6.70;;;;;;;19.06;100.00;101158.94;7370713;19;20447;-48
2023/08/05 11:31:23;;;;;;;4.97;2.20;;;;;;;19.07;100.00;101179.00;7394902;19;20412;-51
2023/08/05 11:33:53;;;;;;;8.90;4.37;;;;;;;19.47;100.00;101180.38;7370452;19;20415;-47